Time;durP1;ratioP1;P1;durP2;ratioP2;P2;SDS_P1;SDS_P2;PMS_P1;PMS_P2;Temp;Humidity;BMP_temperature;BMP_pressure;BME280_temperature;BME280_humidity;BME280_pressure;Samples;Min_cycle;Max_cycle;Signal;HPM_P1;HPM_P2
2022/09/28 00:01:33;;;;;;;15.45;8.77;;;;;;;16.90;100.00;98971.34;5067328;28;20025;-26
2022/09/28 00:03:59;;;;;;;14.63;9.38;;;;;;;16.72;100.00;98970.97;5067187;28;20036;-27
2022/09/28 00:06:27;;;;;;;14.40;9.10;;;;;;;16.76;100.00;98965.84;5048820;28;20083;-28
2022/09/28 00:08:53;;;;;;;14.60;8.73;;;;;;;16.80;100.00;98970.34;5067172;28;20036;-30
2022/09/28 00:11:20;;;;;;;12.05;9.10;;;;;;;16.93;100.00;98971.56;5067098;28;20499;-27
2022/09/28 00:13:50;;;;;;;11.63;8.50;;;;;;;16.91;100.00;98970.25;5066789;28;20466;-29
2022/09/28 00:16:18;;;;;;;12.25;8.13;;;;;;;16.63;100.00;98953.84;5067552;28;20029;-28
2022/09/28 00:18:44;;;;;;;;;;;;;;;16.68;100.00;98972.63;5049435;28;20520;-28
2022/09/28 00:21:15;;;;;;;9.55;7.57;;;;;;;16.58;100.00;98959.28;5067141;28;20296;-29
2022/09/28 00:26:27;;;;;;;14.45;9.63;;;;;;;16.42;100.00;98964.81;5067191;28;20039;-28
2022/09/28 00:28:58;;;;;;;15.60;9.20;;;;;;;16.52;100.00;98949.66;5067131;28;20496;-27
2022/09/28 00:31:25;;;;;;;12.25;7.82;;;;;;;16.51;100.00;98958.81;5066915;28;20026;-28
2022/09/28 00:33:52;;;;;;;11.88;8.07;;;;;;;16.67;100.00;98949.47;5066511;28;20028;-26
2022/09/28 00:36:18;;;;;;;13.95;8.43;;;;;;;16.86;100.00;98968.44;5048726;28;20048;-27
2022/09/28 00:38:45;;;;;;;13.10;8.25;;;;;;;16.63;100.00;98954.66;5066406;28;20116;-26
2022/09/28 00:41:10;;;;;;;15.20;10.07;;;;;;;16.58;100.00;98956.59;5066649;28;20055;-28
2022/09/28 00:43:36;;;;;;;13.50;9.68;;;;;;;16.71;100.00;98955.91;5066541;28;20063;-28
2022/09/28 00:46:09;;;;;;;13.98;9.43;;;;;;;16.60;100.00;98930.19;5066570;28;20036;-28
2022/09/28 00:48:39;;;;;;;11.65;8.90;;;;;;;16.73;100.00;98952.94;5066683;28;20621;-29
2022/09/28 00:51:11;;;;;;;11.77;9.32;;;;;;;16.78;100.00;98964.44;5066602;28;20190;-27
2022/09/28 00:53:42;;;;;;;11.63;8.55;;;;;;;16.79;100.00;98967.94;5066763;28;20389;-27
2022/09/28 00:56:13;;;;;;;11.82;8.45;;;;;;;16.72;100.00;98973.66;5066648;28;20028;-27
2022/09/28 00:58:46;;;;;;;13.88;9.32;;;;;;;16.69;100.00;98952.69;5066776;28;20121;-26
2022/09/28 01:01:11;;;;;;;14.57;10.52;;;;;;;16.77;100.00;98960.13;5066728;28;20033;-26
2022/09/28 01:03:44;;;;;;;19.73;11.82;;;;;;;16.83;100.00;98953.63;5066807;28;20032;-30
2022/09/28 01:06:14;;;;;;;15.52;10.82;;;;;;;16.44;100.00;98941.13;5066210;28;20053;-26
2022/09/28 01:08:40;;;;;;;14.57;10.32;;;;;;;16.04;100.00;98924.28;5066730;28;20032;-27
2022/09/28 01:11:05;;;;;;;13.75;8.82;;;;;;;15.88;100.00;98941.66;5066398;28;20499;-29
2022/09/28 01:13:32;;;;;;;11.20;9.05;;;;;;;16.07;100.00;98953.31;5066412;28;20021;-27
2022/09/28 01:16:19;;;;;;;10.77;8.20;;;;;;;16.35;100.00;98947.41;5069542;28;20094;-28
2022/09/28 01:19:03;;;;;;;13.23;8.55;;;;;;;16.23;100.00;98939.72;5070536;28;20747;-27
2022/09/28 01:21:40;;;;;;;12.48;8.77;;;;;;;16.23;100.00;98912.81;5070452;28;20028;-28
2022/09/28 01:24:32;;;;;;;11.70;8.15;;;;;;;16.11;100.00;98925.84;5070177;28;20032;-27
2022/09/28 01:27:09;;;;;;;11.63;8.40;;;;;;;15.76;100.00;98949.25;5070523;28;20119;-27
2022/09/28 01:29:46;;;;;;;9.95;7.78;;;;;;;15.38;100.00;98951.63;5070366;28;20032;-27
2022/09/28 01:32:27;;;;;;;10.63;7.38;;;;;;;15.51;100.00;98959.06;5070387;28;20033;-26
2022/09/28 01:35:06;;;;;;;12.30;9.00;;;;;;;15.85;100.00;98936.81;5070168;28;20088;-26
2022/09/28 01:37:46;;;;;;;15.43;9.10;;;;;;;15.89;100.00;98947.81;5070049;28;20174;-27
2022/09/28 01:40:14;;;;;;;12.07;8.18;;;;;;;15.94;100.00;98956.66;5070386;28;20028;-28
2022/09/28 01:42:40;;;;;;;;;;;;;;;15.86;100.00;98957.25;5052734;28;20028;-28
2022/09/28 01:45:13;;;;;;;12.48;8.48;;;;;;;15.80;100.00;98955.69;5070229;28;19915;-26
2022/09/28 01:47:40;;;;;;;12.15;8.48;;;;;;;15.89;99.83;98967.44;5070031;28;20024;-30
2022/09/28 01:50:11;;;;;;;12.48;8.50;;;;;;;15.79;99.84;98956.75;5051449;28;20036;-27
2022/09/28 01:52:49;;;;;;;12.20;9.13;;;;;;;16.02;99.42;98971.38;5069721;28;20035;-27
2022/09/28 01:55:27;;;;;;;12.98;8.85;;;;;;;15.55;100.00;98957.44;5069646;28;20039;-28
2022/09/28 01:58:13;;;;;;;10.82;8.48;;;;;;;15.77;100.00;98966.97;5069331;28;20036;-27
2022/09/28 02:00:44;;;;;;;12.23;8.82;;;;;;;15.72;100.00;98975.91;5051736;28;20460;-28
2022/09/28 02:03:38;;;;;;;11.80;8.30;;;;;;;15.79;100.00;98980.94;5069788;28;20499;-28
2022/09/28 02:06:15;;;;;;;12.35;7.93;;;;;;;15.79;100.00;98962.13;5042581;28;20123;-28
2022/09/28 02:08:50;;;;;;;11.15;7.93;;;;;;;16.05;100.00;98966.22;5069451;28;20048;-28
2022/09/28 02:11:18;;;;;;;10.15;8.13;;;;;;;16.00;100.00;98947.47;5069422;28;20108;-27
2022/09/28 02:13:52;;;;;;;11.15;7.90;;;;;;;16.09;100.00;98968.38;5069214;28;20110;-27
2022/09/28 02:16:18;;;;;;;11.32;7.93;;;;;;;15.92;100.00;98963.41;5069301;28;20032;-28
2022/09/28 02:18:44;;;;;;;11.70;8.25;;;;;;;15.93;100.00;98957.72;5069141;28;20411;-27
2022/09/28 02:21:20;;;;;;;18.13;9.65;;;;;;;15.99;100.00;98959.28;5069638;28;20123;-30
2022/09/28 02:23:53;;;;;;;13.05;8.75;;;;;;;15.55;100.00;98953.94;5069396;28;20036;-27
2022/09/28 02:26:23;;;;;;;13.52;8.68;;;;;;;15.41;100.00;98953.75;5069019;28;20103;-29
2022/09/28 02:28:49;;;;;;;11.20;7.93;;;;;;;15.44;100.00;98962.06;5069170;28;20039;-31
2022/09/28 02:31:14;;;;;;;10.20;7.43;;;;;;;15.76;100.00;98963.50;5069043;28;20036;-27
2022/09/28 02:33:42;;;;;;;11.25;7.40;;;;;;;15.56;100.00;98967.09;5069062;28;20039;-30
2022/09/28 02:36:08;;;;;;;;;;;;;;;15.32;100.00;98968.84;5069472;28;20477;-29
2022/09/28 02:38:36;;;;;;;10.35;7.00;;;;;;;15.25;100.00;98937.72;5068924;28;19920;-27
2022/09/28 02:41:37;;;;;;;11.57;6.97;;;;;;;15.35;100.00;98952.19;5068977;28;20062;-27
2022/09/28 02:44:25;;;;;;;10.98;7.88;;;;;;;15.49;100.00;98969.31;5053464;28;20086;-29
2022/09/28 02:47:23;;;;;;;12.73;6.75;;;;;;;15.46;100.00;98956.41;5058690;28;20840;-27
2022/09/28 02:50:09;;;;;;;10.90;7.68;;;;;;;15.52;100.00;98966.03;5068490;28;20027;-28
2022/09/28 02:52:57;;;;;;;12.15;8.38;;;;;;;15.57;100.00;98965.19;5068726;28;20039;-27
2022/09/28 02:55:49;;;;;;;16.08;9.85;;;;;;;15.60;99.96;98972.72;5068302;28;20108;-27
2022/09/28 02:58:27;;;;;;;11.85;7.68;;;;;;;15.56;99.96;98969.78;5068233;28;20075;-27
2022/09/28 03:01:13;;;;;;;13.77;7.60;;;;;;;15.42;99.40;98947.28;5068505;28;20037;-26
2022/09/28 03:03:48;;;;;;;9.85;7.18;;;;;;;15.57;100.00;98971.41;5068478;28;20508;-26
2022/09/28 03:06:14;;;;;;;9.45;6.63;;;;;;;15.27;100.00;98951.69;5068295;28;20770;-28
2022/09/28 03:09:07;;;;;;;8.15;6.28;;;;;;;14.96;100.00;98972.50;5068245;28;20029;-27
2022/09/28 03:11:41;;;;;;;8.77;5.95;;;;;;;14.74;100.00;98948.69;5065092;28;20047;-26
2022/09/28 03:14:07;;;;;;;9.00;5.80;;;;;;;14.84;100.00;98980.88;5068023;28;20111;-30
2022/09/28 03:16:32;;;;;;;8.63;6.07;;;;;;;14.86;100.00;98961.81;5068372;28;20123;-26
2022/09/28 03:18:58;;;;;;;10.00;6.65;;;;;;;15.45;100.00;98973.63;5067802;28;20058;-29
2022/09/28 03:21:23;;;;;;;10.20;6.47;;;;;;;15.58;99.79;98972.19;5068300;28;20135;-27
2022/09/28 03:23:48;;;;;;;8.68;5.88;;;;;;;15.42;99.40;98947.28;5050009;28;20029;-28
2022/09/28 03:26:15;;;;;;;8.43;6.10;;;;;;;15.73;98.48;98961.34;5067944;28;20028;-26
2022/09/28 03:28:41;;;;;;;7.60;5.63;;;;;;;15.32;100.00;98955.41;5067631;28;20504;-28
2022/09/28 03:31:06;;;;;;;8.82;5.63;;;;;;;15.18;100.00;98958.72;5067713;28;20071;-26
2022/09/28 03:33:32;;;;;;;10.80;5.63;;;;;;;15.22;98.97;98961.63;5067458;28;20025;-27
2022/09/28 03:35:57;;;;;;;10.73;5.65;;;;;;;15.17;98.66;98957.09;5067144;28;20107;-29
2022/09/28 03:38:23;;;;;;;9.63;5.18;;;;;;;15.02;99.16;98943.75;5067030;28;20025;-26
2022/09/28 03:40:56;;;;;;;8.02;5.43;;;;;;;15.25;100.00;98980.69;5067527;28;20035;-27
2022/09/28 03:43:22;;;;;;;8.57;5.03;;;;;;;15.06;100.00;98977.84;5067860;28;20035;-25
2022/09/28 03:46:06;;;;;;;8.20;5.10;;;;;;;14.65;99.31;98986.03;5067340;28;20035;-27
2022/09/28 03:48:33;;;;;;;9.10;5.70;;;;;;;14.41;100.00;98979.59;5067533;28;20035;-27
2022/09/28 03:51:02;;;;;;;8.27;5.20;;;;;;;14.06;100.00;98986.59;5067716;28;20074;-28
2022/09/28 03:53:31;;;;;;;8.55;5.57;;;;;;;13.96;100.00;98986.59;5067482;28;20029;-27
2022/09/28 03:56:02;;;;;;;9.45;6.35;;;;;;;13.66;100.00;99005.03;5048860;28;20032;-31
2022/09/28 03:58:28;;;;;;;10.60;6.65;;;;;;;13.44;100.00;98981.16;5067570;28;20515;-29
2022/09/28 04:00:53;;;;;;;9.73;6.55;;;;;;;13.55;100.00;99002.59;5067092;28;20028;-27
2022/09/28 04:03:18;;;;;;;10.23;5.97;;;;;;;13.76;100.00;98998.09;5067651;28;20028;-26
2022/09/28 04:05:51;;;;;;;9.70;7.15;;;;;;;13.61;100.00;98991.63;5067459;28;20136;-26
2022/09/28 04:08:17;;;;;;;10.35;7.80;;;;;;;13.64;100.00;98995.66;5067393;28;20527;-31
2022/09/28 04:10:43;;;;;;;10.93;7.35;;;;;;;13.94;100.00;98988.75;5067057;28;20037;-30
2022/09/28 04:13:08;;;;;;;11.20;7.57;;;;;;;14.29;100.00;99006.69;5048862;28;20431;-27
2022/09/28 04:15:35;;;;;;;11.20;7.20;;;;;;;14.37;100.00;99005.34;5066891;28;20077;-27
2022/09/28 04:18:00;;;;;;;12.18;7.10;;;;;;;14.51;99.15;99000.25;5066844;28;20087;-27
2022/09/28 04:20:26;;;;;;;11.77;6.75;;;;;;;14.71;98.84;98996.72;5066955;28;20028;-26
2022/09/28 04:22:51;;;;;;;10.60;6.85;;;;;;;14.60;99.91;98988.69;5067146;28;20032;-27
2022/09/28 04:25:17;;;;;;;9.77;6.63;;;;;;;14.66;98.11;99000.22;5066951;28;20040;-27
2022/09/28 04:30:26;;;;;;;10.23;6.80;;;;;;;14.54;97.70;99002.38;5067301;28;20108;-29
2022/09/28 04:32:52;;;;;;;10.02;6.55;;;;;;;14.63;99.24;99000.78;5066876;28;20454;-28
2022/09/28 04:35:17;;;;;;;11.38;6.50;;;;;;;14.63;97.35;99008.84;5066924;28;20032;-26
2022/09/28 04:37:43;;;;;;;10.43;6.45;;;;;;;14.55;99.26;99009.38;5067141;28;20085;-31
2022/09/28 04:40:09;;;;;;;9.40;6.55;;;;;;;14.16;100.00;99012.56;5066647;28;20549;-28
2022/09/28 04:42:35;;;;;;;11.75;6.63;;;;;;;14.30;100.00;99008.28;5066528;28;20036;-27
2022/09/28 04:45:01;;;;;;;11.00;6.53;;;;;;;14.55;99.23;99009.38;5067018;28;20086;-26
2022/09/28 04:47:28;;;;;;;10.55;7.22;;;;;;;14.53;99.96;98990.03;5066754;28;20025;-27
2022/09/28 04:49:54;;;;;;;10.80;6.28;;;;;;;14.59;99.32;98989.00;5047493;28;20064;-25
2022/09/28 04:52:19;;;;;;;11.38;7.22;;;;;;;14.88;98.50;98999.13;5066815;28;20085;-28
2022/09/28 04:54:44;;;;;;;10.93;7.22;;;;;;;14.51;100.00;99027.88;5048441;28;20550;-27
2022/09/28 04:57:10;;;;;;;11.90;7.40;;;;;;;14.36;100.00;98999.16;5066431;28;20412;-27
2022/09/28 04:59:36;;;;;;;11.18;7.38;;;;;;;14.75;100.00;99011.22;5066845;28;20419;-28
2022/09/28 05:02:02;;;;;;;10.43;7.68;;;;;;;14.65;100.00;99026.28;5066224;28;20032;-28
2022/09/28 05:04:29;;;;;;;18.48;10.20;;;;;;;14.57;100.00;99021.44;5048330;28;20692;-27
2022/09/28 05:06:55;;;;;;;24.40;12.50;;;;;;;14.54;100.00;99040.72;5066316;28;20056;-28
2022/09/28 05:09:20;;;;;;;23.02;11.65;;;;;;;14.20;100.00;99035.09;5048308;28;20480;-26
2022/09/28 05:11:49;;;;;;;26.52;11.63;;;;;;;14.15;100.00;99048.53;5066311;28;20031;-30
2022/09/28 05:14:15;;;;;;;25.27;10.70;;;;;;;14.32;100.00;99049.06;5066455;28;20039;-29
2022/09/28 05:16:41;;;;;;;31.50;8.88;;;;;;;14.32;100.00;99053.63;5066555;28;20029;-29
2022/09/28 05:19:06;;;;;;;36.10;7.45;;;;;;;14.32;100.00;99065.13;5066416;28;20029;-29
2022/09/28 05:21:32;;;;;;;20.30;6.18;;;;;;;14.23;100.00;99056.03;5066303;28;20469;-29
2022/09/28 05:23:57;;;;;;;11.07;6.72;;;;;;;14.27;100.00;99073.19;5066213;28;20716;-29
2022/09/28 05:26:23;;;;;;;9.23;6.55;;;;;;;14.45;100.00;99086.06;5066511;28;20028;-32
2022/09/28 05:28:49;;;;;;;8.50;6.60;;;;;;;14.24;100.00;99087.13;5066713;28;20031;-30
2022/09/28 05:31:15;;;;;;;8.55;6.50;;;;;;;14.65;100.00;99071.09;5066516;28;20028;-33
2022/09/28 05:33:40;;;;;;;8.80;6.85;;;;;;;14.92;100.00;99078.81;5066304;28;20098;-30
2022/09/28 05:36:09;;;;;;;9.95;7.25;;;;;;;14.90;100.00;99080.19;5066017;28;20036;-30
2022/09/28 05:38:35;;;;;;;9.38;6.93;;;;;;;15.23;100.00;99074.16;5047929;28;20036;-31
2022/09/28 05:41:00;;;;;;;11.60;7.45;;;;;;;15.56;100.00;99077.25;5048174;28;20028;-30
2022/09/28 05:43:26;;;;;;;10.68;8.25;;;;;;;15.72;100.00;99059.22;5066095;28;20024;-33
2022/09/28 05:45:51;;;;;;;11.27;8.25;;;;;;;16.09;100.00;99073.25;5066041;28;20522;-30
2022/09/28 05:48:16;;;;;;;10.93;8.30;;;;;;;16.21;99.52;99071.00;5066453;28;20059;-31
2022/09/28 05:50:42;;;;;;;11.90;8.45;;;;;;;16.17;100.00;99078.03;5066007;28;20024;-29
2022/09/28 05:53:08;;;;;;;11.00;8.73;;;;;;;16.35;99.20;99061.22;5065456;28;20028;-29
2022/09/28 05:55:36;;;;;;;13.65;8.50;;;;;;;16.38;98.55;99071.41;5065595;28;20052;-30
2022/09/28 05:58:04;;;;;;;10.50;7.87;;;;;;;16.68;98.40;99094.56;5065958;28;20044;-30
2022/09/28 06:00:30;;;;;;;;;;;;;;;16.77;98.23;99084.00;5067460;28;20024;-30
2022/09/28 06:03:00;;;;;;;11.32;8.38;;;;;;;17.03;96.73;99089.16;5069804;28;19971;-31
2022/09/28 06:05:27;;;;;;;10.07;7.68;;;;;;;16.98;96.81;99086.50;5069368;28;20032;-32
2022/09/28 06:07:58;;;;;;;11.60;8.60;;;;;;;16.92;97.84;99080.41;5069204;28;20508;-31
2022/09/28 06:10:25;;;;;;;10.80;7.90;;;;;;;17.04;96.21;99066.50;5069522;28;20416;-30
2022/09/28 06:12:54;;;;;;;12.52;8.60;;;;;;;17.12;96.97;99083.94;5069619;28;20116;-29
2022/09/28 06:15:24;;;;;;;12.90;8.85;;;;;;;16.99;98.31;99082.75;5069639;28;20036;-31
2022/09/28 06:18:01;;;;;;;10.40;8.45;;;;;;;16.86;98.71;99076.94;5069037;28;20033;-30
2022/09/28 06:20:30;;;;;;;11.17;8.70;;;;;;;16.90;99.07;99095.22;5049630;28;20039;-28
2022/09/28 06:22:56;;;;;;;11.68;9.20;;;;;;;17.17;99.02;99087.41;5068496;28;20032;-31
2022/09/28 06:25:22;;;;;;;13.18;8.23;;;;;;;17.35;97.90;99087.75;5068544;28;20089;-29
2022/09/28 06:27:55;;;;;;;14.77;8.40;;;;;;;17.72;96.17;99091.59;5050334;28;20044;-31
2022/09/28 06:30:21;;;;;;;11.13;7.90;;;;;;;17.84;93.64;99100.91;5068569;28;20121;-28
2022/09/28 06:32:46;;;;;;;10.48;7.47;;;;;;;17.91;94.54;99088.94;5068974;28;20083;-29
2022/09/28 06:35:14;;;;;;;13.27;8.63;;;;;;;18.12;94.43;99100.25;5069031;28;20769;-30
2022/09/28 06:37:43;;;;;;;12.15;8.32;;;;;;;18.11;93.74;99095.97;5068938;28;20515;-31
2022/09/28 06:40:09;;;;;;;9.93;7.13;;;;;;;18.03;95.14;99098.19;5068814;28;20024;-30
2022/09/28 06:42:34;;;;;;;12.02;9.05;;;;;;;18.46;93.53;99106.19;5068920;28;20107;-31
2022/09/28 06:45:00;;;;;;;9.45;7.63;;;;;;;18.43;92.50;99074.41;5068875;28;20085;-34
2022/09/28 06:47:25;;;;;;;10.57;7.25;;;;;;;18.64;91.14;99084.84;5068636;28;20098;-30
2022/09/28 06:49:54;;;;;;;10.07;7.15;;;;;;;18.61;90.13;99107.03;5069068;28;20495;-30
2022/09/28 06:52:19;;;;;;;10.68;7.85;;;;;;;18.57;91.45;99092.53;5068846;28;20024;-28
2022/09/28 06:54:45;;;;;;;12.68;8.10;;;;;;;18.67;92.45;99111.25;5068826;28;20034;-30
2022/09/28 06:57:10;;;;;;;13.18;8.23;;;;;;;18.59;92.54;99087.63;5068738;28;20132;-31
2022/09/28 06:59:36;;;;;;;12.07;7.65;;;;;;;18.95;90.52;99103.25;5068545;28;20036;-31
2022/09/28 07:02:01;;;;;;;11.93;8.05;;;;;;;19.15;88.73;99096.69;5068157;28;20036;-30
2022/09/28 07:04:27;;;;;;;12.00;7.50;;;;;;;19.21;87.94;99098.19;5068350;28;20068;-30
2022/09/28 07:06:53;;;;;;;11.10;7.97;;;;;;;19.16;91.27;99099.06;5068546;28;20040;-30
2022/09/28 07:09:18;;;;;;;10.77;8.07;;;;;;;19.35;88.99;99114.38;5067901;28;20454;-29
2022/09/28 07:11:43;;;;;;;10.35;7.43;;;;;;;19.41;88.44;99114.00;5067593;28;20029;-31
2022/09/28 07:14:10;;;;;;;9.95;7.68;;;;;;;19.59;88.23;99125.00;5067563;28;20086;-30
2022/09/28 07:16:37;;;;;;;11.38;7.57;;;;;;;19.24;88.11;99117.28;5067982;28;20459;-32
2022/09/28 07:19:02;;;;;;;12.45;8.20;;;;;;;19.57;87.91;99111.00;5068178;28;20547;-30
2022/09/28 07:21:28;;;;;;;9.57;7.43;;;;;;;19.87;86.25;99113.06;5067940;28;20025;-30
2022/09/28 07:23:53;;;;;;;10.20;7.72;;;;;;;19.94;86.63;99107.28;5068005;28;20028;-29
2022/09/28 07:26:19;;;;;;;9.02;6.97;;;;;;;20.37;86.24;99117.66;5067961;28;20032;-30
2022/09/28 07:28:44;;;;;;;8.82;6.82;;;;;;;20.31;83.46;99113.47;5068055;28;20105;-29
2022/09/28 07:31:10;;;;;;;8.40;6.50;;;;;;;20.26;83.32;99119.00;5067475;28;20378;-29
2022/09/28 07:33:36;;;;;;;10.65;6.03;;;;;;;20.35;82.24;99125.28;5068158;28;20026;-31
2022/09/28 07:36:05;;;;;;;7.88;5.15;;;;;;;20.36;80.79;99109.84;5067767;28;20028;-31
2022/09/28 07:38:32;;;;;;;8.57;5.30;;;;;;;20.46;80.58;99098.75;5050173;28;20120;-30
2022/09/28 07:41:21;;;;;;;7.75;5.68;;;;;;;21.06;81.51;99106.50;5067639;28;20041;-30
2022/09/28 07:43:47;;;;;;;7.40;4.90;;;;;;;21.15;79.90;99098.38;5067340;28;20051;-36
2022/09/28 07:46:12;;;;;;;7.75;5.10;;;;;;;21.33;77.87;99103.84;5067841;28;20032;-29
2022/09/28 07:48:42;;;;;;;7.93;5.20;;;;;;;21.54;79.09;99114.97;5067720;28;20106;-30
2022/09/28 07:51:08;;;;;;;11.30;5.95;;;;;;;21.66;77.28;99117.88;5067395;28;20166;-31
2022/09/28 07:53:34;;;;;;;7.78;4.75;;;;;;;21.48;76.48;99097.25;5067394;28;20123;-29
2022/09/28 07:56:06;;;;;;;8.50;5.32;;;;;;;21.76;76.55;99104.03;5066995;28;20028;-30
2022/09/28 07:58:34;;;;;;;6.60;4.78;;;;;;;21.85;76.52;99093.16;5049127;28;20489;-32
2022/09/28 08:01:05;;;;;;;;;;;;;;;22.13;74.32;99103.72;5049743;28;20063;-31
2022/09/28 08:03:31;;;;;;;6.45;3.58;;;;;;;22.24;71.17;99100.41;5067246;28;19912;-31
2022/09/28 08:05:57;;;;;;;6.85;4.38;;;;;;;22.12;71.82;99094.78;5066901;28;20056;-29
2022/09/28 08:08:23;;;;;;;7.47;4.78;;;;;;;22.20;73.56;99082.31;5067072;28;20108;-29
2022/09/28 08:10:51;;;;;;;6.68;4.22;;;;;;;22.36;73.60;99091.59;5066902;28;20035;-29
2022/09/28 08:13:17;;;;;;;6.25;4.15;;;;;;;22.67;73.38;99096.03;5067245;28;20060;-29
2022/09/28 08:15:42;;;;;;;7.43;4.03;;;;;;;22.89;72.25;99102.38;5067092;28;20074;-29
2022/09/28 08:18:08;;;;;;;8.55;3.88;;;;;;;23.20;71.36;99092.06;5066911;28;20028;-31
2022/09/28 08:23:19;;;;;;;6.30;3.95;;;;;;;23.67;67.03;99093.91;5066679;28;20486;-30
2022/09/28 08:25:49;;;;;;;6.72;3.58;;;;;;;23.52;66.23;99087.09;5067179;28;20040;-30
2022/09/28 08:28:18;;;;;;;5.70;3.70;;;;;;;23.34;67.63;99100.00;5048615;28;20032;-30
2022/09/28 08:30:45;;;;;;;5.93;3.53;;;;;;;23.53;68.54;99099.56;5067137;28;20060;-31
2022/09/28 08:33:12;;;;;;;5.00;3.53;;;;;;;23.84;66.33;99088.38;5066818;28;20028;-30
2022/09/28 08:35:39;;;;;;;4.85;3.47;;;;;;;23.82;68.66;99098.81;5048771;28;20470;-30
2022/09/28 08:38:05;;;;;;;5.20;3.28;;;;;;;23.81;66.26;99099.91;5066903;28;20027;-29
2022/09/28 08:40:36;;;;;;;4.80;3.33;;;;;;;24.00;65.16;99083.13;5066810;28;20024;-29
2022/09/28 08:43:14;;;;;;;5.90;3.50;;;;;;;24.01;65.01;99101.06;5067458;28;20025;-30
2022/09/28 08:45:39;;;;;;;5.25;3.40;;;;;;;24.05;65.20;99093.81;5066839;28;20043;-29
2022/09/28 08:51:29;;;;;;;5.35;3.10;;;;;;;24.38;63.94;99106.69;5067211;28;20082;-30
2022/09/28 08:54:09;;;;;;;6.05;3.10;;;;;;;24.51;63.07;99093.13;5066498;28;20573;-30
2022/09/28 08:56:38;;;;;;;4.63;2.97;;;;;;;24.42;62.33;99085.81;5066507;28;20032;-31
2022/09/28 08:59:11;;;;;;;4.57;2.80;;;;;;;24.51;61.03;99093.13;5066456;28;20488;-30
2022/09/28 09:01:43;;;;;;;5.93;2.95;;;;;;;24.60;61.61;99094.66;5066883;28;20039;-31
2022/09/28 09:04:09;;;;;;;4.45;2.65;;;;;;;24.75;59.17;99087.75;5066861;28;20043;-31
2022/09/28 09:06:49;;;;;;;4.38;2.85;;;;;;;24.97;60.39;99102.13;5048622;28;20057;-30
2022/09/28 09:09:46;;;;;;;4.55;2.53;;;;;;;25.19;58.29;99096.22;5066449;28;20036;-33
2022/09/28 09:12:35;;;;;;;4.75;2.28;;;;;;;25.33;57.17;99087.72;5066647;28;20024;-35
2022/09/28 09:15:19;;;;;;;4.03;2.22;;;;;;;25.63;57.26;99079.28;5066563;28;20381;-33
2022/09/28 09:17:57;;;;;;;5.25;2.30;;;;;;;25.77;56.31;99077.00;5066573;28;20036;-31
2022/09/28 09:20:32;;;;;;;;;;;;;;;25.89;54.95;99078.09;5067237;28;20075;-29
2022/09/28 09:23:15;;;;;;;4.35;2.35;;;;;;;26.13;56.35;99072.56;5066562;28;19909;-30
2022/09/28 09:25:49;;;;;;;3.88;2.55;;;;;;;26.08;54.77;99064.66;5066234;28;20029;-31
2022/09/28 09:28:34;;;;;;;3.30;2.50;;;;;;;26.37;54.34;99076.38;5066767;28;20032;-30
2022/09/28 09:31:25;;;;;;;3.92;2.50;;;;;;;26.15;50.63;99059.38;5066474;28;20060;-32
2022/09/28 09:34:16;;;;;;;5.30;1.95;;;;;;;26.37;50.58;99085.34;5066020;28;20036;-30
2022/09/28 09:37:03;;;;;;;4.25;1.90;;;;;;;26.54;48.83;99084.28;5069143;28;20032;-29
2022/09/28 09:40:01;;;;;;;2.88;2.05;;;;;;;26.28;52.53;99084.72;5070076;28;20523;-30
2022/09/28 09:42:47;;;;;;;3.70;2.20;;;;;;;26.52;49.79;99085.75;5069993;28;20028;-31
2022/09/28 09:45:45;;;;;;;3.92;1.80;;;;;;;26.51;47.29;99078.69;5069192;28;20044;-32
2022/09/28 09:48:33;;;;;;;2.05;1.70;;;;;;;26.36;45.61;99081.03;5069765;28;20052;-32
2022/09/28 09:51:03;;;;;;;3.58;1.80;;;;;;;26.84;49.25;99089.34;5069722;28;20056;-31
2022/09/28 09:53:37;;;;;;;3.42;2.08;;;;;;;27.06;47.43;99085.22;5069745;28;20028;-31
2022/09/28 09:56:10;;;;;;;4.07;2.00;;;;;;;26.96;47.88;99086.53;5069521;28;20035;-31
2022/09/28 09:58:41;;;;;;;3.05;2.05;;;;;;;27.32;46.83;99087.44;5069754;28;20032;-30
2022/09/28 10:01:20;;;;;;;3.45;2.00;;;;;;;27.47;45.83;99090.53;5051298;28;20431;-30
2022/09/28 10:03:47;;;;;;;3.92;2.10;;;;;;;27.84;46.24;99072.56;5069700;28;20056;-31
2022/09/28 10:06:35;;;;;;;3.97;2.03;;;;;;;27.64;45.93;99085.47;5050324;28;20688;-30
2022/09/28 10:09:04;;;;;;;3.67;2.13;;;;;;;27.40;46.49;99066.50;5051447;28;20028;-29
2022/09/28 10:11:42;;;;;;;6.15;2.70;;;;;;;27.65;46.51;99059.63;5051318;28;20036;-33
2022/09/28 10:14:14;;;;;;;3.58;2.17;;;;;;;27.90;43.99;99064.09;5051191;28;20090;-27
2022/09/28 10:16:40;;;;;;;4.88;1.67;;;;;;;28.02;42.14;99058.47;5069488;28;20111;-28
2022/09/28 10:19:09;;;;;;;2.60;1.75;;;;;;;27.95;39.06;99053.66;5069566;28;20550;-32
2022/09/28 10:21:39;;;;;;;2.90;1.50;;;;;;;27.89;37.92;99065.25;5051085;28;20447;-28
2022/09/28 10:24:07;;;;;;;3.78;1.55;;;;;;;28.37;39.12;99063.88;5068896;28;20484;-28
2022/09/28 10:26:40;;;;;;;3.80;1.63;;;;;;;28.22;39.99;99040.09;5069428;28;20590;-28
2022/09/28 10:29:16;;;;;;;1.83;1.50;;;;;;;28.45;38.21;99049.13;5069695;28;20051;-27
2022/09/28 10:31:47;;;;;;;5.75;2.00;;;;;;;28.48;39.30;99055.03;5069505;28;20552;-27
2022/09/28 10:34:16;;;;;;;4.03;1.50;;;;;;;28.92;37.33;99044.47;5069310;28;20020;-29
2022/09/28 10:36:50;;;;;;;2.78;1.45;;;;;;;29.36;36.96;99038.53;5050730;28;20029;-27
2022/09/28 10:39:45;;;;;;;4.18;1.40;;;;;;;29.63;35.74;99053.03;5050294;28;20023;-29
2022/09/28 10:42:16;;;;;;;4.75;1.75;;;;;;;29.84;34.02;99049.78;4995461;28;20413;-28
2022/09/28 10:45:22;;;;;;;9.93;7.13;;;;;;;29.78;34.88;99048.53;5053284;28;20068;-31
2022/09/28 10:47:48;;;;;;;4.00;1.70;;;;;;;30.00;34.29;99033.13;5068620;28;20043;-30
2022/09/28 10:50:26;;;;;;;2.95;1.75;;;;;;;30.05;35.77;99024.50;5069018;28;20059;-28
2022/09/28 10:52:52;;;;;;;4.10;1.48;;;;;;;29.98;36.13;99037.41;5068788;28;20725;-27
2022/09/28 10:55:20;;;;;;;2.38;1.20;;;;;;;30.18;33.23;99035.25;5068510;28;20503;-28
2022/09/28 10:57:46;;;;;;;3.17;1.20;;;;;;;29.82;33.22;99023.84;5050528;28;20039;-31
2022/09/28 11:00:38;;;;;;;3.40;1.63;;;;;;;29.44;35.06;99025.69;5068614;28;20068;-29
2022/09/28 11:03:04;;;;;;;4.00;1.30;;;;;;;29.19;35.54;99014.34;5050243;28;20059;-28
2022/09/28 11:05:31;;;;;;;2.63;1.40;;;;;;;29.18;35.38;99018.25;5068162;28;20123;-27
2022/09/28 11:07:59;;;;;;;4.43;1.90;;;;;;;28.84;34.92;99021.63;5068053;28;20028;-27
2022/09/28 11:10:30;;;;;;;4.38;2.17;;;;;;;28.26;37.07;99013.53;5066952;28;20071;-28
2022/09/28 11:12:56;;;;;;;5.40;1.73;;;;;;;27.92;36.95;99001.53;5050167;28;20031;-27
2022/09/28 11:15:28;;;;;;;5.47;1.90;;;;;;;27.77;37.04;99003.94;5058781;28;20420;-29
2022/09/28 11:17:54;;;;;;;5.80;1.52;;;;;;;27.42;38.15;98995.75;5048182;28;20025;-27
2022/09/28 11:20:22;;;;;;;7.50;2.15;;;;;;;27.31;38.25;99002.94;5028675;28;20043;-30
2022/09/28 11:22:49;;;;;;;5.13;1.60;;;;;;;27.31;38.87;98992.78;5048317;28;20033;-34
2022/09/28 11:25:17;;;;;;;7.27;1.67;;;;;;;27.51;38.71;98996.34;5047859;28;20025;-27
2022/09/28 11:27:52;;;;;;;3.17;1.80;;;;;;;27.53;39.41;99004.22;5048342;28;20278;-29
2022/09/28 11:30:23;;;;;;;3.60;1.70;;;;;;;27.97;38.89;99001.22;5047667;28;20040;-28
2022/09/28 11:32:51;;;;;;;5.05;1.58;;;;;;;28.11;38.69;98992.47;5047657;28;20128;-27
2022/09/28 11:35:22;;;;;;;3.08;1.70;;;;;;;28.06;37.75;98979.88;5047385;28;20029;-29
2022/09/28 11:37:53;;;;;;;5.13;1.70;;;;;;;28.27;36.41;98984.94;5047774;28;20032;-29
2022/09/28 11:40:33;;;;;;;6.00;1.80;;;;;;;28.12;37.83;98970.19;5047693;28;20108;-29
2022/09/28 11:43:45;;;;;;;4.60;1.42;;;;;;;28.12;36.94;98985.84;5047934;28;20029;-27
2022/09/28 11:46:32;;;;;;;5.95;1.52;;;;;;;28.48;36.90;98979.03;5029341;28;20039;-30
2022/09/28 11:49:05;;;;;;;3.70;1.55;;;;;;;28.89;38.06;98978.56;5047483;28;20040;-27
2022/09/28 11:51:35;;;;;;;3.65;1.60;;;;;;;28.67;37.06;98982.91;5047554;28;20036;-27
2022/09/28 11:54:13;;;;;;;6.13;1.63;;;;;;;28.60;36.41;98967.13;5047178;28;20029;-28
2022/09/28 11:56:48;;;;;;;2.70;1.58;;;;;;;29.38;37.16;98975.78;5047597;28;20036;-29